sensor_id;sensor_type;location;lat;lon;timestamp;pressure;altitude;pressure_sealevel;temperature;humidity
59055;BME280;44845;51.444;7.460;2023-02-22T00:00:48;99694.59;;;8.61;78.37
59055;BME280;44845;51.444;7.460;2023-02-22T00:05:51;99685.88;;;8.58;78.69
59055;BME280;44845;51.444;7.460;2023-02-22T00:08:20;99685.00;;;8.52;78.54
59055;BME280;44845;51.444;7.460;2023-02-22T00:10:46;99684.97;;;8.54;78.58
59055;BME280;44845;51.444;7.460;2023-02-22T00:13:16;99680.63;;;8.54;78.63
59055;BME280;44845;51.444;7.460;2023-02-22T00:15:41;99684.97;;;8.54;78.69
59055;BME280;44845;51.444;7.460;2023-02-22T00:18:07;99678.03;;;8.54;78.73
59055;BME280;44845;51.444;7.460;2023-02-22T00:20:35;99678.03;;;8.50;78.63
59055;BME280;44845;51.444;7.460;2023-02-22T00:23:04;99675.41;;;8.51;78.75
59055;BME280;44845;51.444;7.460;2023-02-22T00:25:32;99678.00;;;8.53;78.70
59055;BME280;44845;51.444;7.460;2023-02-22T00:27:58;99669.31;;;8.54;78.51
59055;BME280;44845;51.444;7.460;2023-02-22T00:30:26;99670.19;;;8.51;78.84
59055;BME280;44845;51.444;7.460;2023-02-22T00:32:53;99673.66;;;8.49;78.95
59055;BME280;44845;51.444;7.460;2023-02-22T00:35:21;99671.03;;;8.45;78.84
59055;BME280;44845;51.444;7.460;2023-02-22T00:37:48;99658.00;;;8.39;78.65
59055;BME280;44845;51.444;7.460;2023-02-22T00:40:18;99660.63;;;8.39;78.95
59055;BME280;44845;51.444;7.460;2023-02-22T00:42:44;99656.28;;;8.43;78.87
59055;BME280;44845;51.444;7.460;2023-02-22T00:45:11;99653.66;;;8.32;78.69
59055;BME280;44845;51.444;7.460;2023-02-22T00:47:36;99656.28;;;8.35;78.83
59055;BME280;44845;51.444;7.460;2023-02-22T00:50:02;99655.41;;;8.33;78.95
59055;BME280;44845;51.444;7.460;2023-02-22T00:52:28;99653.66;;;8.32;78.46
59055;BME280;44845;51.444;7.460;2023-02-22T00:54:54;99651.91;;;8.31;78.69
59055;BME280;44845;51.444;7.460;2023-02-22T00:57:21;99653.66;;;8.29;78.56
59055;BME280;44845;51.444;7.460;2023-02-22T00:59:46;99649.31;;;8.32;78.05
59055;BME280;44845;51.444;7.460;2023-02-22T01:02:12;99650.19;;;8.30;78.35
59055;BME280;44845;51.444;7.460;2023-02-22T01:04:37;99650.19;;;8.23;78.34
59055;BME280;44845;51.444;7.460;2023-02-22T01:07:03;99650.22;;;8.20;78.63
59055;BME280;44845;51.444;7.460;2023-02-22T01:09:28;99644.97;;;8.17;78.78
59055;BME280;44845;51.444;7.460;2023-02-22T01:11:54;99645.84;;;8.19;78.65
59055;BME280;44845;51.444;7.460;2023-02-22T01:14:21;99641.47;;;8.21;78.31
59055;BME280;44845;51.444;7.460;2023-02-22T01:16:48;99638.88;;;8.20;78.50
59055;BME280;44845;51.444;7.460;2023-02-22T01:19:15;99633.69;;;8.01;78.75
59055;BME280;44845;51.444;7.460;2023-02-22T01:21:40;99631.94;;;8.11;78.63
59055;BME280;44845;51.444;7.460;2023-02-22T01:24:06;99632.78;;;8.07;78.54
59055;BME280;44845;51.444;7.460;2023-02-22T01:26:31;99624.09;;;8.11;78.94
59055;BME280;44845;51.444;7.460;2023-02-22T01:28:56;99625.00;;;8.04;78.81
59055;BME280;44845;51.444;7.460;2023-02-22T01:31:22;99620.63;;;8.06;78.71
59055;BME280;44845;51.444;7.460;2023-02-22T01:33:48;99615.41;;;8.03;78.80
59055;BME280;44845;51.444;7.460;2023-02-22T01:36:15;99611.03;;;8.05;78.68
59055;BME280;44845;51.444;7.460;2023-02-22T01:38:40;99612.78;;;8.04;78.45
59055;BME280;44845;51.444;7.460;2023-02-22T01:41:06;99601.47;;;8.07;78.23
59055;BME280;44845;51.444;7.460;2023-02-22T01:43:32;99600.56;;;8.06;78.24
59055;BME280;44845;51.444;7.460;2023-02-22T01:46:00;99597.97;;;8.02;78.31
59055;BME280;44845;51.444;7.460;2023-02-22T01:48:41;99597.97;;;8.02;78.39
59055;BME280;44845;51.444;7.460;2023-02-22T01:51:13;99592.78;;;7.98;78.31
59055;BME280;44845;51.444;7.460;2023-02-22T01:54:53;99590.16;;;8.00;78.29
59055;BME280;44845;51.444;7.460;2023-02-22T01:56:57;99592.75;;;8.02;78.11
59055;BME280;44845;51.444;7.460;2023-02-22T01:59:25;99597.09;;;7.96;78.02
59055;BME280;44845;51.444;7.460;2023-02-22T02:01:52;99592.78;;;7.98;77.71
59055;BME280;44845;51.444;7.460;2023-02-22T02:04:22;99586.66;;;7.96;78.29
59055;BME280;44845;51.444;7.460;2023-02-22T02:06:51;99587.56;;;7.86;78.51
59055;BME280;44845;51.444;7.460;2023-02-22T02:09:22;99584.94;;;7.94;78.17
59055;BME280;44845;51.444;7.460;2023-02-22T02:11:53;99584.94;;;7.91;78.28
59055;BME280;44845;51.444;7.460;2023-02-22T02:14:18;99584.06;;;7.90;77.96
59055;BME280;44845;51.444;7.460;2023-02-22T02:16:47;99580.59;;;7.82;78.02
59055;BME280;44845;51.444;7.460;2023-02-22T02:19:22;99578.00;;;7.80;78.41
59055;BME280;44845;51.444;7.460;2023-02-22T02:27:13;99584.94;;;7.80;77.74
59055;BME280;44845;51.444;7.460;2023-02-22T02:32:34;99571.91;;;7.76;78.13
59055;BME280;44845;51.444;7.460;2023-02-22T02:35:13;99568.44;;;7.79;78.21
59055;BME280;44845;51.444;7.460;2023-02-22T02:41:05;99566.69;;;7.73;78.38
59055;BME280;44845;51.444;7.460;2023-02-22T02:46:54;99569.28;;;7.75;78.14
59055;BME280;44845;51.444;7.460;2023-02-22T02:49:24;99561.47;;;7.64;77.82
59055;BME280;44845;51.444;7.460;2023-02-22T02:51:53;99561.47;;;7.58;78.18
59055;BME280;44845;51.444;7.460;2023-02-22T02:54:21;99558.00;;;7.55;78.35
59055;BME280;44845;51.444;7.460;2023-02-22T02:56:47;99549.28;;;7.60;78.36
59055;BME280;44845;51.444;7.460;2023-02-22T02:59:28;99550.16;;;7.55;78.10
59055;BME280;44845;51.444;7.460;2023-02-22T03:02:21;99552.78;;;7.55;78.18
59055;BME280;44845;51.444;7.460;2023-02-22T03:07:41;99539.72;;;7.48;77.91
59055;BME280;44845;51.444;7.460;2023-02-22T03:10:42;99542.34;;;7.49;78.21
59055;BME280;44845;51.444;7.460;2023-02-22T03:13:18;99530.16;;;7.39;77.85
59055;BME280;44845;51.444;7.460;2023-02-22T03:16:14;99529.28;;;7.32;77.74
59055;BME280;44845;51.444;7.460;2023-02-22T03:21:47;99528.41;;;7.28;77.54
59055;BME280;44845;51.444;7.460;2023-02-22T03:24:29;99527.53;;;7.28;77.76
59055;BME280;44845;51.444;7.460;2023-02-22T03:27:05;99531.03;;;7.28;78.09
59055;BME280;44845;51.444;7.460;2023-02-22T03:29:40;99515.38;;;7.27;77.45
59055;BME280;44845;51.444;7.460;2023-02-22T03:32:09;99511.88;;;7.18;77.15
59055;BME280;44845;51.444;7.460;2023-02-22T03:34:44;99516.22;;;7.08;77.96
59055;BME280;44845;51.444;7.460;2023-02-22T03:37:17;99510.16;;;7.09;77.94
59055;BME280;44845;51.444;7.460;2023-02-22T03:39:44;99512.75;;;7.09;77.60
59055;BME280;44845;51.444;7.460;2023-02-22T03:42:15;99511.00;;;7.08;77.36
59055;BME280;44845;51.444;7.460;2023-02-22T03:44:44;99501.47;;;7.07;77.69
59055;BME280;44845;51.444;7.460;2023-02-22T03:47:15;99505.78;;;7.08;77.86
59055;BME280;44845;51.444;7.460;2023-02-22T03:49:52;99504.94;;;7.11;77.68
59055;BME280;44845;51.444;7.460;2023-02-22T03:52:19;99503.16;;;7.01;77.77
59055;BME280;44845;51.444;7.460;2023-02-22T03:54:48;99500.56;;;6.99;77.75
59055;BME280;44845;51.444;7.460;2023-02-22T03:57:24;99493.63;;;6.95;78.12
59055;BME280;44845;51.444;7.460;2023-02-22T03:59:50;99504.03;;;6.82;77.72
59055;BME280;44845;51.444;7.460;2023-02-22T04:02:16;99505.75;;;6.86;78.19
59055;BME280;44845;51.444;7.460;2023-02-22T04:04:45;99497.91;;;6.74;77.68
59055;BME280;44845;51.444;7.460;2023-02-22T04:07:11;99498.78;;;6.76;78.46
59055;BME280;44845;51.444;7.460;2023-02-22T04:09:37;99497.03;;;6.67;77.62
59055;BME280;44845;51.444;7.460;2023-02-22T04:12:02;99495.31;;;6.63;77.27
59055;BME280;44845;51.444;7.460;2023-02-22T04:14:28;99495.28;;;6.61;77.14
59055;BME280;44845;51.444;7.460;2023-02-22T04:16:53;99487.44;;;6.52;76.50
59055;BME280;44845;51.444;7.460;2023-02-22T04:19:19;99493.56;;;6.60;75.66
59055;BME280;44845;51.444;7.460;2023-02-22T04:21:44;99487.44;;;6.57;75.37
59055;BME280;44845;51.444;7.460;2023-02-22T04:24:10;99481.34;;;6.50;75.34
59055;BME280;44845;51.444;7.460;2023-02-22T04:26:36;99482.22;;;6.52;75.48
59055;BME280;44845;51.444;7.460;2023-02-22T04:29:01;99480.50;;;6.52;75.14
59055;BME280;44845;51.444;7.460;2023-02-22T04:31:28;99477.91;;;6.51;74.98
59055;BME280;44845;51.444;7.460;2023-02-22T04:33:53;99478.72;;;6.42;75.76
59055;BME280;44845;51.444;7.460;2023-02-22T04:36:19;99477.00;;;6.41;75.39
59055;BME280;44845;51.444;7.460;2023-02-22T04:38:46;99476.97;;;6.38;75.30
59055;BME280;44845;51.444;7.460;2023-02-22T04:41:15;99483.03;;;6.37;75.62
59055;BME280;44845;51.444;7.460;2023-02-22T04:43:40;99467.44;;;6.41;75.81
59055;BME280;44845;51.444;7.460;2023-02-22T04:46:06;99469.16;;;6.39;75.80
59055;BME280;44845;51.444;7.460;2023-02-22T04:48:31;99470.03;;;6.37;76.01
59055;BME280;44845;51.444;7.460;2023-02-22T04:50:57;99470.03;;;6.38;76.26
59055;BME280;44845;51.444;7.460;2023-02-22T04:53:22;99464.84;;;6.38;76.04
59055;BME280;44845;51.444;7.460;2023-02-22T04:55:47;99464.81;;;6.35;76.32
59055;BME280;44845;51.444;7.460;2023-02-22T04:58:13;99459.63;;;6.40;76.16
59055;BME280;44845;51.444;7.460;2023-02-22T05:00:38;99459.63;;;6.40;75.85
59055;BME280;44845;51.444;7.460;2023-02-22T05:03:03;99451.81;;;6.38;76.11
59055;BME280;44845;51.444;7.460;2023-02-22T05:05:29;99457.00;;;6.41;76.31
59055;BME280;44845;51.444;7.460;2023-02-22T05:07:54;99448.34;;;6.36;76.40
59055;BME280;44845;51.444;7.460;2023-02-22T05:10:20;99458.75;;;6.36;76.66
59055;BME280;44845;51.444;7.460;2023-02-22T05:12:45;99453.53;;;6.36;76.60
59055;BME280;44845;51.444;7.460;2023-02-22T05:15:16;99446.59;;;6.38;76.48
59055;BME280;44845;51.444;7.460;2023-02-22T05:17:42;99453.53;;;6.39;76.46
59055;BME280;44845;51.444;7.460;2023-02-22T05:20:25;99454.44;;;6.43;75.82
59055;BME280;44845;51.444;7.460;2023-02-22T05:22:54;99459.63;;;6.40;75.43
59055;BME280;44845;51.444;7.460;2023-02-22T05:25:19;99455.25;;;6.34;75.36
59055;BME280;44845;51.444;7.460;2023-02-22T05:27:51;99456.16;;;6.36;75.42
59055;BME280;44845;51.444;7.460;2023-02-22T05:30:19;99458.75;;;6.36;75.08
59055;BME280;44845;51.444;7.460;2023-02-22T05:32:44;99458.72;;;6.30;74.84
59055;BME280;44845;51.444;7.460;2023-02-22T05:35:10;99453.53;;;6.33;74.20
59055;BME280;44845;51.444;7.460;2023-02-22T05:37:35;99457.84;;;6.23;74.32
59055;BME280;44845;51.444;7.460;2023-02-22T05:40:01;99457.78;;;6.11;74.60
59055;BME280;44845;51.444;7.460;2023-02-22T05:42:26;99456.91;;;6.10;74.44
59055;BME280;44845;51.444;7.460;2023-02-22T05:44:52;99462.91;;;6.01;74.38
59055;BME280;44845;51.444;7.460;2023-02-22T05:47:17;99455.13;;;6.04;74.37
59055;BME280;44845;51.444;7.460;2023-02-22T05:49:42;99460.31;;;6.03;74.16
59055;BME280;44845;51.444;7.460;2023-02-22T05:52:08;99462.91;;;5.98;74.44
59055;BME280;44845;51.444;7.460;2023-02-22T05:54:33;99463.72;;;5.86;74.27
59055;BME280;44845;51.444;7.460;2023-02-22T05:56:58;99460.25;;;5.87;74.42
59055;BME280;44845;51.444;7.460;2023-02-22T05:59:24;99443.75;;;5.83;74.63
59055;BME280;44845;51.444;7.460;2023-02-22T06:01:49;99446.34;;;5.85;74.72
59055;BME280;44845;51.444;7.460;2023-02-22T06:04:15;99448.91;;;5.75;74.92
59055;BME280;44845;51.444;7.460;2023-02-22T06:06:40;99441.09;;;5.72;74.69
59055;BME280;44845;51.444;7.460;2023-02-22T06:09:05;99448.03;;;5.73;74.31
59055;BME280;44845;51.444;7.460;2023-02-22T06:11:31;99447.19;;;5.74;74.17
59055;BME280;44845;51.444;7.460;2023-02-22T06:13:56;99437.63;;;5.72;74.31
59055;BME280;44845;51.444;7.460;2023-02-22T06:16:21;99445.41;;;5.69;74.01
59055;BME280;44845;51.444;7.460;2023-02-22T06:18:47;99440.19;;;5.62;73.94
59055;BME280;44845;51.444;7.460;2023-02-22T06:21:13;99433.22;;;5.61;74.91
59055;BME280;44845;51.444;7.460;2023-02-22T06:23:38;99440.16;;;5.66;74.75
59055;BME280;44845;51.444;7.460;2023-02-22T06:26:04;99443.66;;;5.65;74.56
59055;BME280;44845;51.444;7.460;2023-02-22T06:28:29;99446.31;;;5.72;74.59
59055;BME280;44845;51.444;7.460;2023-02-22T06:30:55;99436.72;;;5.65;74.25
59055;BME280;44845;51.444;7.460;2023-02-22T06:33:20;99444.53;;;5.65;74.70
59055;BME280;44845;51.444;7.460;2023-02-22T06:35:45;99441.03;;;5.63;74.93
59055;BME280;44845;51.444;7.460;2023-02-22T06:38:11;99434.94;;;5.61;74.84
59055;BME280;44845;51.444;7.460;2023-02-22T06:40:36;99435.84;;;5.66;74.83
59055;BME280;44845;51.444;7.460;2023-02-22T06:43:01;99443.69;;;5.71;74.86
59055;BME280;44845;51.444;7.460;2023-02-22T06:45:27;99440.16;;;5.58;75.03
59055;BME280;44845;51.444;7.460;2023-02-22T06:47:52;99439.31;;;5.67;75.02
59055;BME280;44845;51.444;7.460;2023-02-22T06:50:24;99432.38;;;5.70;75.27
59055;BME280;44845;51.444;7.460;2023-02-22T06:52:50;99431.56;;;5.76;74.93
59055;BME280;44845;51.444;7.460;2023-02-22T06:55:34;99425.47;;;5.75;75.04
59055;BME280;44845;51.444;7.460;2023-02-22T06:58:00;99424.66;;;5.81;75.17
59055;BME280;44845;51.444;7.460;2023-02-22T07:00:27;99437.66;;;5.83;75.09
59055;BME280;44845;51.444;7.460;2023-02-22T07:02:53;99435.09;;;5.86;75.53
59055;BME280;44845;51.444;7.460;2023-02-22T07:05:20;99433.38;;;5.93;75.82
59055;BME280;44845;51.444;7.460;2023-02-22T07:07:49;99438.56;;;5.93;75.79
59055;BME280;44845;51.444;7.460;2023-02-22T07:10:24;99427.34;;;5.99;76.31
59055;BME280;44845;51.444;7.460;2023-02-22T07:12:50;99433.44;;;6.05;76.45
59055;BME280;44845;51.444;7.460;2023-02-22T07:15:17;99437.84;;;6.14;76.87
59055;BME280;44845;51.444;7.460;2023-02-22T07:17:42;99432.66;;;6.21;77.44
59055;BME280;44845;51.444;7.460;2023-02-22T07:20:08;99435.28;;;6.28;78.43
59055;BME280;44845;51.444;7.460;2023-02-22T07:22:36;99439.66;;;6.39;78.87
59055;BME280;44845;51.444;7.460;2023-02-22T07:25:01;99436.19;;;6.54;78.68
59055;BME280;44845;51.444;7.460;2023-02-22T07:27:26;99433.63;;;6.63;78.52
59055;BME280;44845;51.444;7.460;2023-02-22T07:29:52;99439.72;;;6.75;78.45
59055;BME280;44845;51.444;7.460;2023-02-22T07:32:17;99429.31;;;6.83;78.51
59055;BME280;44845;51.444;7.460;2023-02-22T07:34:43;99437.13;;;6.84;78.99
59055;BME280;44845;51.444;7.460;2023-02-22T07:37:08;99438.00;;;6.91;78.63
59055;BME280;44845;51.444;7.460;2023-02-22T07:39:33;99442.34;;;6.94;78.78
59055;BME280;44845;51.444;7.460;2023-02-22T07:41:59;99442.34;;;7.05;78.90
59055;BME280;44845;51.444;7.460;2023-02-22T07:44:24;99432.78;;;7.15;78.84
59055;BME280;44845;51.444;7.460;2023-02-22T07:46:50;99443.19;;;7.23;78.56
59055;BME280;44845;51.444;7.460;2023-02-22T07:49:16;99438.84;;;7.28;78.80
59055;BME280;44845;51.444;7.460;2023-02-22T07:51:41;99434.50;;;7.31;78.92
59055;BME280;44845;51.444;7.460;2023-02-22T07:54:06;99436.25;;;7.42;78.74
59055;BME280;44845;51.444;7.460;2023-02-22T07:56:32;99428.38;;;7.51;78.80
59055;BME280;44845;51.444;7.460;2023-02-22T07:58:57;99437.94;;;7.55;78.71
59055;BME280;44845;51.444;7.460;2023-02-22T08:01:23;99430.13;;;7.59;78.65
59055;BME280;44845;51.444;7.460;2023-02-22T08:03:49;99430.09;;;7.65;78.74
59055;BME280;44845;51.444;7.460;2023-02-22T08:06:14;99423.97;;;7.72;78.37
59055;BME280;44845;51.444;7.460;2023-02-22T08:08:39;99417.91;;;7.76;78.67
59055;BME280;44845;51.444;7.460;2023-02-22T08:11:05;99417.00;;;7.84;78.14
59055;BME280;44845;51.444;7.460;2023-02-22T08:13:30;99424.81;;;7.85;78.50
59055;BME280;44845;51.444;7.460;2023-02-22T08:15:57;99405.66;;;7.91;78.35
59055;BME280;44845;51.444;7.460;2023-02-22T08:18:23;99413.44;;;7.97;78.21
59055;BME280;44845;51.444;7.460;2023-02-22T08:20:50;99404.72;;;8.02;78.64
59055;BME280;44845;51.444;7.460;2023-02-22T08:23:16;99409.94;;;8.05;78.57
59055;BME280;44845;51.444;7.460;2023-02-22T08:25:42;99409.94;;;8.08;78.53
59055;BME280;44845;51.444;7.460;2023-02-22T08:28:11;99409.94;;;8.05;78.61
59055;BME280;44845;51.444;7.460;2023-02-22T08:30:38;99410.75;;;8.18;78.41
59055;BME280;44845;51.444;7.460;2023-02-22T08:33:04;99412.47;;;8.22;78.48
59055;BME280;44845;51.444;7.460;2023-02-22T08:35:31;99403.75;;;8.28;78.91
59055;BME280;44845;51.444;7.460;2023-02-22T08:37:59;99403.69;;;8.34;79.03
59055;BME280;44845;51.444;7.460;2023-02-22T08:40:28;99401.06;;;8.37;78.96
59055;BME280;44845;51.444;7.460;2023-02-22T08:42:55;99397.53;;;8.44;78.65
59055;BME280;44845;51.444;7.460;2023-02-22T08:45:20;99399.22;;;8.52;78.41
59055;BME280;44845;51.444;7.460;2023-02-22T08:47:46;99393.97;;;8.58;78.47
59055;BME280;44845;51.444;7.460;2023-02-22T08:50:23;99400.06;;;8.62;78.68
59055;BME280;44845;51.444;7.460;2023-02-22T08:52:51;99390.44;;;8.65;78.69
59055;BME280;44845;51.444;7.460;2023-02-22T08:55:21;99392.13;;;8.73;78.01
59055;BME280;44845;51.444;7.460;2023-02-22T08:57:46;99385.16;;;8.75;77.52
59055;BME280;44845;51.444;7.460;2023-02-22T09:00:12;99393.78;;;8.86;77.45
59055;BME280;44845;51.444;7.460;2023-02-22T09:02:38;99385.91;;;8.88;77.48
59055;BME280;44845;51.444;7.460;2023-02-22T09:05:03;99381.47;;;8.98;77.35
59055;BME280;44845;51.444;7.460;2023-02-22T09:07:30;99376.22;;;9.01;77.06
59055;BME280;44845;51.444;7.460;2023-02-22T09:09:55;99379.66;;;9.06;76.99
59055;BME280;44845;51.444;7.460;2023-02-22T09:12:20;99383.13;;;9.11;76.76
59055;BME280;44845;51.444;7.460;2023-02-22T09:14:46;99384.84;;;9.12;76.41
59055;BME280;44845;51.444;7.460;2023-02-22T09:17:11;99377.81;;;9.18;76.02
59055;BME280;44845;51.444;7.460;2023-02-22T09:19:36;99374.22;;;9.28;76.05
59055;BME280;44845;51.444;7.460;2023-02-22T09:22:02;99375.09;;;9.29;75.80
59055;BME280;44845;51.444;7.460;2023-02-22T09:24:27;99373.28;;;9.35;75.55
59055;BME280;44845;51.444;7.460;2023-02-22T09:26:53;99372.34;;;9.40;75.58
59055;BME280;44845;51.444;7.460;2023-02-22T09:29:19;99372.34;;;9.40;75.22
59055;BME280;44845;51.444;7.460;2023-02-22T09:31:47;99368.88;;;9.41;75.72
59055;BME280;44845;51.444;7.460;2023-02-22T09:34:14;99368.78;;;9.47;75.39
59055;BME280;44845;51.444;7.460;2023-02-22T09:36:41;99372.22;;;9.52;74.66
59055;BME280;44845;51.444;7.460;2023-02-22T09:39:07;99367.84;;;9.54;74.30
59055;BME280;44845;51.444;7.460;2023-02-22T09:42:02;99366.06;;;9.58;74.81
59055;BME280;44845;51.444;7.460;2023-02-22T09:44:41;99366.91;;;9.60;72.35
59055;BME280;44845;51.444;7.460;2023-02-22T09:47:19;99359.06;;;9.57;72.02
59055;BME280;44845;51.444;7.460;2023-02-22T09:49:55;99365.88;;;9.72;72.88
59055;BME280;44845;51.444;7.460;2023-02-22T09:52:36;99360.56;;;9.78;73.39
59055;BME280;44845;51.444;7.460;2023-02-22T09:55:06;99356.22;;;9.77;72.77
59055;BME280;44845;51.444;7.460;2023-02-22T09:57:38;99354.44;;;9.79;72.33
59055;BME280;44845;51.444;7.460;2023-02-22T10:05:28;99343.88;;;9.86;71.98
59055;BME280;44845;51.444;7.460;2023-02-22T10:08:00;99343.81;;;9.92;72.52
59055;BME280;44845;51.444;7.460;2023-02-22T10:10:32;99338.44;;;10.01;72.13
59055;BME280;44845;51.444;7.460;2023-02-22T10:13:24;99338.41;;;10.05;71.58
59055;BME280;44845;51.444;7.460;2023-02-22T10:16:09;99336.53;;;10.13;71.70
59055;BME280;44845;51.444;7.460;2023-02-22T10:21:49;99338.28;;;10.14;72.18
59055;BME280;44845;51.444;7.460;2023-02-22T10:24:37;99335.56;;;10.20;71.60
59055;BME280;44845;51.444;7.460;2023-02-22T10:27:29;99333.78;;;10.24;70.61
59055;BME280;44845;51.444;7.460;2023-02-22T10:30:04;99336.34;;;10.25;70.09
59055;BME280;44845;51.444;7.460;2023-02-22T10:32:45;99331.97;;;10.28;70.09
59055;BME280;44845;51.444;7.460;2023-02-22T10:35:52;99330.97;;;10.35;69.58
59055;BME280;44845;51.444;7.460;2023-02-22T10:38:15;99329.22;;;10.37;69.73
59055;BME280;44845;51.444;7.460;2023-02-22T10:43:33;99334.28;;;10.48;69.25
59055;BME280;44845;51.444;7.460;2023-02-22T10:46:03;99329.88;;;10.53;70.00
59055;BME280;44845;51.444;7.460;2023-02-22T10:48:31;99328.94;;;10.56;68.83
59055;BME280;44845;51.444;7.460;2023-02-22T10:51:01;99326.22;;;10.64;68.79
59055;BME280;44845;51.444;7.460;2023-02-22T10:53:28;99324.38;;;10.67;68.20
59055;BME280;44845;51.444;7.460;2023-02-22T10:58:43;99325.09;;;10.79;68.69
59055;BME280;44845;51.444;7.460;2023-02-22T11:01:25;99323.13;;;10.90;67.24
59055;BME280;44845;51.444;7.460;2023-02-22T11:04:11;99318.69;;;10.96;66.78
59055;BME280;44845;51.444;7.460;2023-02-22T11:07:21;99319.47;;;11.01;68.22
59055;BME280;44845;51.444;7.460;2023-02-22T11:09:29;99312.38;;;11.04;65.83
59055;BME280;44845;51.444;7.460;2023-02-22T11:12:14;99320.81;;;11.21;67.37
59055;BME280;44845;51.444;7.460;2023-02-22T11:14:40;99313.91;;;11.17;65.86
59055;BME280;44845;51.444;7.460;2023-02-22T11:17:07;99311.09;;;11.26;66.54
59055;BME280;44845;51.444;7.460;2023-02-22T11:19:34;99305.81;;;11.29;65.63
59055;BME280;44845;51.444;7.460;2023-02-22T11:24:28;99299.66;;;11.30;64.12
59055;BME280;44845;51.444;7.460;2023-02-22T11:26:59;99305.69;;;11.35;65.25
59055;BME280;44845;51.444;7.460;2023-02-22T11:29:32;99302.00;;;11.44;65.98
59055;BME280;44845;51.444;7.460;2023-02-22T11:32:02;99298.47;;;11.45;65.34
59055;BME280;44845;51.444;7.460;2023-02-22T11:34:37;99293.16;;;11.50;66.45
59055;BME280;44845;51.444;7.460;2023-02-22T11:37:29;99284.41;;;11.48;65.52
59055;BME280;44845;51.444;7.460;2023-02-22T11:40:10;99285.28;;;11.50;64.47
59055;BME280;44845;51.444;7.460;2023-02-22T11:42:38;99289.56;;;11.54;64.16
59055;BME280;44845;51.444;7.460;2023-02-22T11:45:16;99286.88;;;11.57;64.50
59055;BME280;44845;51.444;7.460;2023-02-22T11:47:56;99279.78;;;11.61;64.48
59055;BME280;44845;51.444;7.460;2023-02-22T11:53:24;99272.72;;;11.65;64.29
59055;BME280;44845;51.444;7.460;2023-02-22T11:56:16;99269.16;;;11.66;65.42
59055;BME280;44845;51.444;7.460;2023-02-22T11:59:02;99267.47;;;11.65;63.71
59055;BME280;44845;51.444;7.460;2023-02-22T12:01:51;99263.66;;;11.78;64.88
59055;BME280;44845;51.444;7.460;2023-02-22T12:10:25;99253.03;;;11.85;64.56
59055;BME280;44845;51.444;7.460;2023-02-22T12:15:43;99251.16;;;11.88;62.89
59055;BME280;44845;51.444;7.460;2023-02-22T12:18:19;99254.50;;;11.95;64.65
59055;BME280;44845;51.444;7.460;2023-02-22T12:21:00;99247.63;;;11.91;63.71
59055;BME280;44845;51.444;7.460;2023-02-22T12:23:44;99248.44;;;11.93;63.41
59055;BME280;44845;51.444;7.460;2023-02-22T12:26:15;99250.84;;;12.02;64.21
59055;BME280;44845;51.444;7.460;2023-02-22T12:28:52;99243.94;;;11.98;64.70
59055;BME280;44845;51.444;7.460;2023-02-22T12:31:38;99239.47;;;12.02;64.86
59055;BME280;44845;51.444;7.460;2023-02-22T12:34:28;99247.53;;;11.94;62.53
59055;BME280;44845;51.444;7.460;2023-02-22T12:37:04;99233.44;;;11.98;63.27
59055;BME280;44845;51.444;7.460;2023-02-22T12:42:03;99235.06;;;12.02;62.72
59055;BME280;44845;51.444;7.460;2023-02-22T12:44:34;99235.06;;;12.02;58.77
59055;BME280;44845;51.444;7.460;2023-02-22T12:47:01;99234.94;;;12.09;59.27
59055;BME280;44845;51.444;7.460;2023-02-22T12:49:47;99222.69;;;12.08;57.38
59055;BME280;44845;51.444;7.460;2023-02-22T12:52:31;99226.09;;;12.13;59.99
59055;BME280;44845;51.444;7.460;2023-02-22T12:55:10;99219.94;;;12.12;59.06
59055;BME280;44845;51.444;7.460;2023-02-22T13:00:29;99218.91;;;12.21;57.92
59055;BME280;44845;51.444;7.460;2023-02-22T13:03:02;99220.56;;;12.25;59.09
59055;BME280;44845;51.444;7.460;2023-02-22T13:05:33;99219.63;;;12.26;58.69
59055;BME280;44845;51.444;7.460;2023-02-22T13:08:13;99216.13;;;12.27;59.63
59055;BME280;44845;51.444;7.460;2023-02-22T13:13:45;99219.44;;;12.34;58.44
59055;BME280;44845;51.444;7.460;2023-02-22T13:18:51;99216.63;;;12.42;60.24
59055;BME280;44845;51.444;7.460;2023-02-22T13:21:36;99214.19;;;12.34;58.46
59055;BME280;44845;51.444;7.460;2023-02-22T13:27:00;99210.91;;;12.26;58.46
59055;BME280;44845;51.444;7.460;2023-02-22T13:29:35;99215.22;;;12.29;57.54
59055;BME280;44845;51.444;7.460;2023-02-22T13:32:08;99209.91;;;12.30;57.77
59055;BME280;44845;51.444;7.460;2023-02-22T13:45:47;99213.28;;;12.35;58.73
59055;BME280;44845;51.444;7.460;2023-02-22T13:48:46;99218.59;;;12.34;57.92
59055;BME280;44845;51.444;7.460;2023-02-22T13:53:55;99220.16;;;12.41;60.33
59055;BME280;44845;51.444;7.460;2023-02-22T13:56:23;99219.31;;;12.39;58.27
59055;BME280;44845;51.444;7.460;2023-02-22T13:58:54;99219.38;;;12.37;58.83
59055;BME280;44845;51.444;7.460;2023-02-22T14:01:39;99211.44;;;12.39;58.29
59055;BME280;44845;51.444;7.460;2023-02-22T14:04:20;99214.75;;;12.47;60.37
59055;BME280;44845;51.444;7.460;2023-02-22T14:06:46;99217.53;;;12.41;60.57
59055;BME280;44845;51.444;7.460;2023-02-22T14:09:18;99215.75;;;12.42;60.29
59055;BME280;44845;51.444;7.460;2023-02-22T14:12:01;99220.25;;;12.38;58.62
59055;BME280;44845;51.444;7.460;2023-02-22T14:14:26;99211.59;;;12.33;58.08
59055;BME280;44845;51.444;7.460;2023-02-22T14:17:14;99218.50;;;12.37;60.52
59055;BME280;44845;51.444;7.460;2023-02-22T14:19:40;99230.81;;;12.35;59.52
59055;BME280;44845;51.444;7.460;2023-02-22T14:22:05;99215.94;;;12.35;60.42
59055;BME280;44845;51.444;7.460;2023-02-22T14:24:42;99224.63;;;12.37;60.60
59055;BME280;44845;51.444;7.460;2023-02-22T14:27:09;99217.63;;;12.38;60.38
59055;BME280;44845;51.444;7.460;2023-02-22T14:29:35;99212.44;;;12.35;60.13
59055;BME280;44845;51.444;7.460;2023-02-22T14:32:04;99220.31;;;12.35;61.52
59055;BME280;44845;51.444;7.460;2023-02-22T14:34:46;99215.84;;;12.38;61.22
59055;BME280;44845;51.444;7.460;2023-02-22T14:42:32;99215.63;;;12.46;62.06
59055;BME280;44845;51.444;7.460;2023-02-22T14:47:57;99208.72;;;12.76;72.19
59055;BME280;44845;51.444;7.460;2023-02-22T14:55:43;99216.41;;;13.15;59.37